Time;durP1;ratioP1;P1;durP2;ratioP2;P2;SDS_P1;SDS_P2;PMS_P1;PMS_P2;Temp;Humidity;BMP_temperature;BMP_pressure;BME280_temperature;BME280_humidity;BME280_pressure;Samples;Min_cycle;Max_cycle;Signal;HPM_P1;HPM_P2
2023/06/02 00:00:54;;;;;;;13.18;2.63;;;11.60;99.90;;;;;;5051228;28;20110;-51
2023/06/02 00:03:20;;;;;;;14.07;2.80;;;11.60;99.90;;;;;;5051183;28;20033;-52
2023/06/02 00:05:46;;;;;;;6.63;1.97;;;11.60;99.90;;;;;;5051232;28;20560;-55
2023/06/02 00:08:11;;;;;;;;;;;11.60;99.90;;;;;;5051020;28;20275;-51
2023/06/02 00:10:38;;;;;;;9.88;2.92;;;11.60;99.90;;;;;;5051076;28;19969;-52
2023/06/02 00:13:06;;;;;;;11.30;2.30;;;11.60;99.90;;;;;;5050313;28;20451;-53
2023/06/02 00:15:33;;;;;;;10.73;1.85;;;11.60;99.90;;;;;;5051175;28;20037;-52
2023/06/02 00:17:58;;;;;;;11.93;1.90;;;11.50;99.90;;;;;;5067880;28;20443;-53
2023/06/02 00:20:26;;;;;;;8.07;2.27;;;11.50;99.90;;;;;;5070769;28;20112;-51
2023/06/02 00:22:52;;;;;;;13.60;2.10;;;11.50;99.90;;;;;;5070768;28;20044;-55
2023/06/02 00:25:18;;;;;;;16.42;2.90;;;11.40;99.90;;;;;;5071005;28;20040;-52
2023/06/02 00:27:44;;;;;;;7.20;1.98;;;11.40;99.90;;;;;;5069115;28;20047;-52
2023/06/02 00:30:10;;;;;;;10.25;1.90;;;11.40;99.90;;;;;;5043657;28;20403;-52
2023/06/02 00:32:36;;;;;;;;;;;11.40;99.90;;;;;;5035734;28;20048;-52
2023/06/02 00:35:01;;;;;;;9.60;2.67;;;11.40;99.90;;;;;;5039916;28;19917;-51
2023/06/02 00:37:27;;;;;;;11.85;1.95;;;11.40;99.90;;;;;;5047787;28;20033;-54
2023/06/02 00:39:52;;;;;;;16.67;2.93;;;11.30;99.90;;;;;;5037482;28;20041;-55
2023/06/02 00:42:20;;;;;;;12.57;1.98;;;11.30;99.90;;;;;;5050004;28;20124;-51
2023/06/02 00:44:46;;;;;;;14.57;1.90;;;11.30;99.90;;;;;;5040121;28;20120;-52
2023/06/02 00:47:11;;;;;;;14.90;2.90;;;11.30;99.90;;;;;;5030765;28;20105;-52
2023/06/02 00:49:37;;;;;;;16.03;3.90;;;11.30;99.90;;;;;;5030193;28;20041;-54
2023/06/02 00:52:03;;;;;;;11.60;1.73;;;11.30;99.90;;;;;;5030402;28;20083;-52
2023/06/02 00:54:29;;;;;;;13.05;1.83;;;11.30;99.90;;;;;;5030381;28;20049;-51
2023/06/02 00:56:55;;;;;;;15.57;2.25;;;11.30;99.90;;;;;;5040023;28;20098;-51
2023/06/02 00:59:22;;;;;;;10.85;2.30;;;11.30;99.90;;;;;;5050008;28;20076;-51
2023/06/02 01:01:48;;;;;;;15.27;2.83;;;11.30;99.90;;;;;;5050164;28;20049;-51
2023/06/02 01:04:15;;;;;;;15.20;3.03;;;11.30;99.90;;;;;;5049823;28;20068;-53
2023/06/02 01:06:41;;;;;;;12.98;3.63;;;11.30;99.90;;;;;;5049976;28;20083;-51
2023/06/02 01:09:10;;;;;;;16.73;3.20;;;11.30;99.90;;;;;;5049503;28;20489;-52
2023/06/02 01:11:36;;;;;;;13.35;3.05;;;11.30;99.90;;;;;;5050104;28;20121;-51
2023/06/02 01:14:02;;;;;;;13.60;2.78;;;11.30;99.90;;;;;;5049102;28;20455;-52
2023/06/02 01:16:30;;;;;;;16.90;2.63;;;11.30;99.90;;;;;;5050105;28;20055;-52
2023/06/02 01:18:59;;;;;;;14.15;2.35;;;11.30;99.90;;;;;;5049876;28;20052;-52
2023/06/02 01:21:28;;;;;;;19.20;2.38;;;11.30;99.90;;;;;;5048800;28;20040;-54
2023/06/02 01:23:57;;;;;;;14.02;2.38;;;11.30;99.90;;;;;;5049883;28;20436;-52
2023/06/02 01:26:29;;;;;;;11.98;1.52;;;11.30;99.90;;;;;;5050316;28;20449;-52
2023/06/02 01:28:54;;;;;;;11.60;2.42;;;11.30;99.90;;;;;;5050336;28;20068;-51
2023/06/02 01:31:28;;;;;;;13.73;3.20;;;11.30;99.90;;;;;;5050260;28;20497;-52
2023/06/02 01:34:00;;;;;;;13.15;2.90;;;11.30;99.90;;;;;;5036064;28;20041;-54
2023/06/02 01:36:28;;;;;;;9.95;1.75;;;11.30;99.90;;;;;;5029559;28;20048;-52
2023/06/02 01:38:57;;;;;;;10.27;2.70;;;11.30;99.90;;;;;;5029547;28;20049;-54
2023/06/02 01:41:25;;;;;;;13.63;2.05;;;11.30;99.90;;;;;;5030163;28;20037;-52
2023/06/02 01:43:52;;;;;;;15.38;2.10;;;11.20;99.90;;;;;;5030092;28;20087;-53
2023/06/02 01:46:17;;;;;;;14.35;3.13;;;11.30;99.90;;;;;;5056278;28;20028;-51
2023/06/02 01:48:43;;;;;;;9.65;2.53;;;11.20;99.90;;;;;;5066677;28;20120;-53
2023/06/02 01:51:09;;;;;;;19.42;3.63;;;11.30;99.90;;;;;;5048710;28;20175;-52
2023/06/02 01:53:34;;;;;;;15.95;2.70;;;11.30;99.90;;;;;;5045497;28;20037;-53
2023/06/02 01:56:00;;;;;;;8.68;2.38;;;11.30;99.90;;;;;;5046428;28;20064;-53
2023/06/02 01:58:26;;;;;;;10.60;2.60;;;11.20;99.90;;;;;;5029301;28;20403;-52
2023/06/02 02:00:54;;;;;;;19.50;3.70;;;11.30;99.90;;;;;;5029787;28;20041;-51
2023/06/02 02:03:22;;;;;;;12.57;2.03;;;11.30;99.90;;;;;;5027931;28;20127;-53
2023/06/02 02:05:47;;;;;;;15.07;2.45;;;11.20;99.90;;;;;;5030164;28;20045;-54
2023/06/02 02:08:13;;;;;;;15.73;3.00;;;11.20;99.90;;;;;;5031778;28;20034;-51
2023/06/02 02:10:39;;;;;;;17.33;2.30;;;11.20;99.90;;;;;;5048080;28;20757;-51
2023/06/02 02:13:04;;;;;;;13.07;2.42;;;11.20;99.90;;;;;;5047216;28;20048;-54
2023/06/02 02:15:31;;;;;;;9.87;2.30;;;11.20;99.90;;;;;;5049869;28;20106;-51
2023/06/02 02:17:59;;;;;;;21.50;3.40;;;11.20;99.90;;;;;;5052410;28;20285;-51
2023/06/02 02:20:26;;;;;;;15.68;2.78;;;11.20;99.90;;;;;;5051533;28;20049;-52
2023/06/02 02:22:51;;;;;;;13.00;2.65;;;11.20;99.90;;;;;;5053149;28;20076;-52
2023/06/02 02:25:17;;;;;;;11.17;1.83;;;11.20;99.90;;;;;;5053038;28;20064;-51
2023/06/02 02:27:43;;;;;;;16.70;2.90;;;11.20;99.90;;;;;;5052796;28;20267;-49
2023/06/02 02:30:09;;;;;;;14.15;2.35;;;11.20;99.90;;;;;;5052717;28;20073;-49
2023/06/02 02:32:38;;;;;;;12.40;2.53;;;11.10;99.90;;;;;;5052507;28;20045;-50
2023/06/02 02:35:04;;;;;;;16.17;3.03;;;11.10;99.90;;;;;;5052872;28;20517;-48
2023/06/02 02:37:30;;;;;;;;;;;11.10;99.90;;;;;;5051686;28;20048;-52
2023/06/02 02:39:56;;;;;;;13.48;2.97;;;11.10;99.90;;;;;;5053016;28;19917;-49
2023/06/02 02:42:21;;;;;;;14.37;3.07;;;11.00;99.90;;;;;;5049057;28;20490;-49
2023/06/02 02:44:47;;;;;;;20.33;3.70;;;11.00;99.90;;;;;;5046435;28;20063;-50
2023/06/02 02:47:12;;;;;;;14.63;2.70;;;11.00;99.90;;;;;;5038380;28;20105;-49
2023/06/02 02:49:38;;;;;;;14.10;2.42;;;11.00;99.90;;;;;;5051029;28;20144;-53
2023/06/02 02:52:04;;;;;;;13.90;2.88;;;11.00;99.90;;;;;;5052699;28;20045;-50
2023/06/02 02:54:29;;;;;;;15.38;3.65;;;11.00;99.90;;;;;;5037308;28;20049;-49
2023/06/02 02:56:55;;;;;;;6.87;1.93;;;11.00;99.90;;;;;;5032758;28;20490;-50
2023/06/02 02:59:21;;;;;;;16.55;2.22;;;11.00;99.90;;;;;;5033021;28;20036;-52
2023/06/02 03:01:47;;;;;;;13.57;2.25;;;11.00;99.90;;;;;;5032136;28;20041;-50
2023/06/02 03:04:21;;;;;;;16.95;2.50;;;11.00;99.90;;;;;;5032722;28;20117;-50
2023/06/02 03:06:52;;;;;;;13.07;1.92;;;11.00;99.90;;;;;;5048785;28;20122;-49
2023/06/02 03:09:18;;;;;;;11.45;2.33;;;11.00;99.90;;;;;;5052227;28;20037;-51
2023/06/02 03:11:45;;;;;;;9.60;1.92;;;11.00;99.90;;;;;;5052549;28;20444;-49
2023/06/02 03:14:11;;;;;;;;;;;11.00;99.90;;;;;;5052130;28;20041;-52
2023/06/02 03:16:40;;;;;;;12.18;2.10;;;11.00;99.90;;;;;;5051910;28;19928;-51
2023/06/02 03:19:06;;;;;;;14.05;2.83;;;11.00;99.90;;;;;;5051868;28;20048;-50
2023/06/02 03:21:41;;;;;;;17.70;2.85;;;11.00;99.90;;;;;;5051896;28;20051;-49
2023/06/02 03:24:17;;;;;;;15.70;2.63;;;11.00;99.90;;;;;;5052515;28;20048;-52
2023/06/02 03:26:44;;;;;;;12.13;2.28;;;11.00;99.90;;;;;;5049632;28;20041;-52
2023/06/02 03:29:10;;;;;;;;;;;11.00;99.90;;;;;;5052342;28;20037;-50
2023/06/02 03:31:36;;;;;;;20.50;2.50;;;11.00;99.90;;;;;;5051771;28;19916;-49
2023/06/02 03:34:06;;;;;;;13.05;1.95;;;11.00;99.90;;;;;;5051958;28;20330;-49
2023/06/02 03:36:35;;;;;;;18.38;2.63;;;11.00;99.90;;;;;;5051876;28;20041;-50
2023/06/02 03:39:09;;;;;;;13.65;2.97;;;11.00;99.90;;;;;;5051712;28;20041;-53
2023/06/02 03:41:36;;;;;;;11.95;2.25;;;11.00;99.90;;;;;;5049678;28;20124;-54
2023/06/02 03:44:03;;;;;;;12.85;2.63;;;11.00;99.90;;;;;;5031640;28;20037;-53
2023/06/02 03:46:29;;;;;;;15.30;2.35;;;11.00;99.90;;;;;;5031732;28;20037;-53
2023/06/02 03:48:55;;;;;;;17.85;4.22;;;11.00;99.90;;;;;;5041648;28;20037;-50
2023/06/02 03:51:21;;;;;;;20.95;2.35;;;11.00;99.90;;;;;;5041257;28;20087;-53
2023/06/02 03:53:48;;;;;;;15.43;2.20;;;11.00;99.90;;;;;;5043227;28;21228;-53
2023/06/02 03:56:14;;;;;;;20.98;3.28;;;11.00;99.90;;;;;;5035279;28;20280;-50
2023/06/02 03:58:40;;;;;;;15.68;2.83;;;11.00;99.90;;;;;;5041376;28;20510;-50
2023/06/02 04:01:05;;;;;;;17.20;2.33;;;11.00;99.90;;;;;;5031247;28;20457;-50
2023/06/02 04:03:37;;;;;;;15.23;2.00;;;11.00;99.90;;;;;;5047211;28;20087;-54
2023/06/02 04:06:07;;;;;;;16.10;2.63;;;11.10;99.90;;;;;;5039272;28;20060;-49
2023/06/02 04:08:33;;;;;;;22.80;2.83;;;11.00;99.90;;;;;;5038314;28;20065;-52
2023/06/02 04:10:59;;;;;;;;;;;11.10;99.90;;;;;;5031536;28;20037;-50
2023/06/02 04:13:24;;;;;;;11.52;1.83;;;11.00;99.90;;;;;;5037426;28;19917;-51
2023/06/02 04:15:50;;;;;;;15.50;3.00;;;11.10;99.90;;;;;;5043785;28;20037;-52
2023/06/02 04:18:16;;;;;;;16.40;2.55;;;11.10;99.90;;;;;;5038116;28;20037;-51
2023/06/02 04:20:42;;;;;;;16.95;2.88;;;11.10;99.90;;;;;;5050692;28;20135;-50
2023/06/02 04:23:08;;;;;;;18.23;2.35;;;11.10;99.90;;;;;;5042719;28;20049;-50
2023/06/02 04:25:33;;;;;;;16.85;2.53;;;11.10;99.90;;;;;;5031123;28;20387;-51
2023/06/02 04:27:59;;;;;;;10.13;2.17;;;11.10;99.90;;;;;;5029692;28;20038;-50
2023/06/02 04:30:24;;;;;;;18.80;3.17;;;11.20;99.90;;;;;;5031345;28;20620;-50
2023/06/02 04:32:50;;;;;;;14.67;1.93;;;11.10;99.90;;;;;;5030982;28;20045;-52
2023/06/02 04:35:16;;;;;;;14.73;2.03;;;11.20;99.90;;;;;;5038204;28;20381;-50
2023/06/02 04:37:44;;;;;;;13.93;2.33;;;11.20;99.90;;;;;;5049971;28;20040;-52
2023/06/02 04:40:10;;;;;;;17.50;1.77;;;11.20;99.90;;;;;;5048354;28;20052;-51
2023/06/02 04:42:38;;;;;;;;;;;11.20;99.90;;;;;;5051168;28;20084;-49
2023/06/02 04:45:07;;;;;;;11.80;2.45;;;11.20;99.90;;;;;;5050380;28;19924;-52
2023/06/02 04:47:32;;;;;;;11.35;2.25;;;11.20;99.90;;;;;;5050748;28;20044;-50
2023/06/02 04:49:58;;;;;;;14.75;2.75;;;11.20;99.90;;;;;;5049911;28;20552;-50
2023/06/02 04:52:24;;;;;;;16.27;2.75;;;11.20;99.90;;;;;;5050217;28;20036;-50
2023/06/02 04:54:49;;;;;;;10.98;2.25;;;11.30;99.90;;;;;;5050565;28;20040;-52
2023/06/02 04:57:15;;;;;;;14.05;2.30;;;11.30;99.90;;;;;;5050288;28;20047;-49
2023/06/02 04:59:41;;;;;;;17.35;2.70;;;11.30;99.90;;;;;;5050004;28;20460;-50
2023/06/02 05:02:06;;;;;;;12.77;2.77;;;11.30;99.90;;;;;;5049853;28;20044;-49
2023/06/02 05:04:34;;;;;;;15.02;2.40;;;11.40;99.90;;;;;;5050062;28;20076;-50
2023/06/02 05:06:59;;;;;;;19.20;2.38;;;11.40;99.90;;;;;;5050384;28;20294;-50
2023/06/02 05:09:25;;;;;;;14.63;2.50;;;11.40;99.90;;;;;;5049909;28;20072;-49
2023/06/02 05:11:51;;;;;;;12.43;2.15;;;11.40;99.90;;;;;;5041966;28;20275;-50
2023/06/02 05:14:17;;;;;;;17.77;2.83;;;11.50;99.90;;;;;;5030116;28;20041;-50
2023/06/02 05:16:44;;;;;;;17.92;1.92;;;11.50;99.90;;;;;;5030676;28;20038;-49
2023/06/02 05:19:10;;;;;;;12.85;2.47;;;11.50;99.90;;;;;;5040741;28;20050;-52
2023/06/02 05:21:35;;;;;;;10.95;1.67;;;11.60;99.90;;;;;;5039307;28;20046;-51
2023/06/02 05:24:01;;;;;;;21.97;2.47;;;11.60;99.90;;;;;;5042488;28;20033;-49
2023/06/02 05:26:27;;;;;;;19.13;2.85;;;11.60;99.90;;;;;;5030190;28;20272;-50
2023/06/02 05:28:53;;;;;;;12.38;2.05;;;11.70;99.90;;;;;;5038694;28;20494;-51
2023/06/02 05:31:19;;;;;;;15.40;2.25;;;11.70;99.90;;;;;;5049916;28;20041;-49
2023/06/02 05:33:45;;;;;;;16.67;2.90;;;11.80;99.90;;;;;;5049815;28;20033;-52
2023/06/02 05:36:11;;;;;;;14.60;2.00;;;11.80;99.90;;;;;;5050000;28;20044;-50
2023/06/02 05:38:43;;;;;;;14.48;2.08;;;11.80;99.90;;;;;;5049483;28;20037;-51
2023/06/02 05:41:10;;;;;;;15.10;2.00;;;11.80;99.90;;;;;;5039793;28;20403;-48
2023/06/02 05:43:35;;;;;;;7.57;1.95;;;11.90;99.90;;;;;;5029845;28;20442;-53
2023/06/02 05:46:01;;;;;;;12.48;2.55;;;11.90;99.90;;;;;;5029845;28;20042;-52
2023/06/02 05:48:27;;;;;;;15.93;2.67;;;11.90;99.90;;;;;;5028427;28;20402;-54
2023/06/02 05:50:53;;;;;;;18.48;2.70;;;12.00;99.90;;;;;;5030733;28;20242;-54
2023/06/02 05:53:18;;;;;;;11.80;2.13;;;11.90;99.90;;;;;;5037074;28;20043;-53
2023/06/02 05:55:44;;;;;;;13.10;2.20;;;12.00;99.90;;;;;;5046025;28;20128;-54
2023/06/02 05:58:09;;;;;;;12.60;2.63;;;12.00;99.90;;;;;;5033479;28;20040;-53
2023/06/02 06:00:35;;;;;;;11.57;2.17;;;12.00;99.90;;;;;;5033639;28;20413;-51
2023/06/02 06:03:00;;;;;;;22.17;3.17;;;12.10;99.90;;;;;;5033764;28;20316;-50
2023/06/02 06:05:26;;;;;;;17.88;2.67;;;12.10;99.90;;;;;;5041308;28;20033;-50
2023/06/02 06:07:51;;;;;;;13.10;2.00;;;12.10;99.90;;;;;;5034254;28;20076;-51
2023/06/02 06:10:17;;;;;;;21.08;2.97;;;12.10;99.90;;;;;;5033571;28;20037;-50
2023/06/02 06:12:43;;;;;;;9.10;1.50;;;12.10;99.90;;;;;;5046264;28;20147;-49
2023/06/02 06:15:09;;;;;;;17.42;2.63;;;12.10;99.90;;;;;;5073103;28;20037;-51
2023/06/02 06:17:43;;;;;;;17.67;3.15;;;12.10;99.90;;;;;;5062043;28;20040;-51
2023/06/02 06:20:10;;;;;;;15.77;2.17;;;12.10;99.90;;;;;;5052962;28;20409;-51
2023/06/02 06:22:36;;;;;;;17.45;2.70;;;12.20;99.90;;;;;;5042270;28;20053;-51
2023/06/02 06:25:01;;;;;;;13.88;2.70;;;12.20;99.90;;;;;;5041778;28;20029;-49
2023/06/02 06:27:27;;;;;;;22.60;2.90;;;12.20;99.90;;;;;;5049293;28;20040;-50
2023/06/02 06:29:52;;;;;;;14.53;2.40;;;12.20;99.90;;;;;;5039532;28;20422;-50
2023/06/02 06:32:18;;;;;;;14.88;3.55;;;12.20;99.90;;;;;;5052631;28;20295;-51
2023/06/02 06:34:44;;;;;;;15.40;2.58;;;12.30;99.90;;;;;;5043754;28;20037;-51
2023/06/02 06:37:09;;;;;;;19.00;2.60;;;12.30;99.90;;;;;;5036448;28;20037;-49
2023/06/02 06:39:35;;;;;;;16.65;2.47;;;12.30;99.90;;;;;;5044602;28;20413;-50
2023/06/02 06:42:00;;;;;;;16.90;2.40;;;12.40;99.90;;;;;;5048447;28;20033;-49
2023/06/02 06:44:26;;;;;;;16.47;2.40;;;12.40;99.90;;;;;;5051879;28;20276;-50
2023/06/02 06:46:52;;;;;;;17.27;2.90;;;12.40;99.90;;;;;;5060586;28;20275;-50
2023/06/02 06:49:17;;;;;;;16.95;3.30;;;12.40;99.90;;;;;;5071420;28;20119;-49
2023/06/02 06:51:43;;;;;;;16.65;3.22;;;12.40;99.90;;;;;;5035777;28;20132;-50
2023/06/02 06:54:09;;;;;;;14.00;2.55;;;12.50;99.90;;;;;;5043823;28;20090;-50
2023/06/02 06:56:35;;;;;;;16.05;3.53;;;12.60;99.90;;;;;;5061582;28;20257;-50
2023/06/02 06:59:00;;;;;;;;;;;12.60;99.90;;;;;;5037480;28;20080;-49
2023/06/02 07:01:26;;;;;;;18.20;3.97;;;12.60;99.90;;;;;;5031121;28;19964;-49
2023/06/02 07:03:52;;;;;;;17.55;4.65;;;12.70;99.90;;;;;;5032456;28;20037;-50
2023/06/02 07:06:17;;;;;;;17.45;3.00;;;12.70;99.90;;;;;;5032181;28;20044;-51
2023/06/02 07:08:43;;;;;;;18.83;3.22;;;12.70;99.90;;;;;;5032317;28;20045;-49
2023/06/02 07:11:08;;;;;;;13.23;3.42;;;12.80;99.90;;;;;;5045821;28;20041;-49
2023/06/02 07:13:34;;;;;;;20.55;4.13;;;12.80;99.90;;;;;;5050950;28;20478;-50
2023/06/02 07:15:59;;;;;;;17.23;3.78;;;12.80;99.90;;;;;;5039089;28;20041;-49
2023/06/02 07:18:25;;;;;;;22.50;4.90;;;12.90;99.90;;;;;;5049659;28;20053;-50
2023/06/02 07:20:51;;;;;;;20.80;3.53;;;12.90;99.90;;;;;;5043294;28;20132;-54
2023/06/02 07:23:16;;;;;;;19.48;4.68;;;12.90;99.90;;;;;;5047986;28;20049;-50
2023/06/02 07:25:42;;;;;;;20.63;3.88;;;13.00;99.90;;;;;;5050918;28;20390;-50
2023/06/02 07:28:08;;;;;;;18.05;5.00;;;13.00;99.90;;;;;;5048504;28;20115;-48
2023/06/02 07:30:35;;;;;;;22.98;4.20;;;13.10;99.90;;;;;;5048915;28;20148;-50
2023/06/02 07:33:00;;;;;;;25.42;4.72;;;13.10;99.90;;;;;;5048189;28;20037;-53
2023/06/02 07:35:26;;;;;;;21.17;5.03;;;13.20;99.90;;;;;;5045878;28;20037;-50
2023/06/02 07:37:53;;;;;;;26.60;5.32;;;13.20;99.90;;;;;;5047426;28;20127;-50
2023/06/02 07:40:19;;;;;;;17.48;4.82;;;13.20;99.90;;;;;;5050346;28;20041;-50
2023/06/02 07:42:45;;;;;;;;;;;13.30;99.90;;;;;;5050888;28;20112;-50
2023/06/02 07:45:11;;;;;;;23.77;5.32;;;13.40;99.90;;;;;;5049912;28;20378;-53
2023/06/02 07:47:37;;;;;;;19.50;4.25;;;13.40;99.90;;;;;;5049947;28;20024;-51
2023/06/02 07:50:02;;;;;;;17.05;4.80;;;13.40;99.90;;;;;;5050048;28;20044;-50
2023/06/02 07:52:28;;;;;;;18.60;4.72;;;13.40;99.90;;;;;;5054332;28;20080;-50
2023/06/02 07:54:54;;;;;;;23.00;5.50;;;13.40;99.90;;;;;;5050150;28;20513;-49
2023/06/02 07:57:20;;;;;;;26.92;5.63;;;13.40;99.90;;;;;;5049705;28;20041;-50
2023/06/02 07:59:45;;;;;;;26.63;6.88;;;13.40;99.90;;;;;;5049611;28;20456;-49
2023/06/02 08:02:11;;;;;;;22.38;6.45;;;13.40;99.90;;;;;;5051441;28;20051;-48
2023/06/02 08:04:36;;;;;;;18.00;4.70;;;13.40;99.90;;;;;;5049196;28;20033;-49
2023/06/02 08:07:03;;;;;;;29.10;5.13;;;13.50;99.90;;;;;;5049916;28;20409;-51
2023/06/02 08:09:29;;;;;;;21.58;5.07;;;13.50;99.90;;;;;;5048717;28;20037;-50
2023/06/02 08:11:54;;;;;;;28.75;6.30;;;13.60;99.90;;;;;;5049868;28;20112;-50
2023/06/02 08:14:20;;;;;;;28.67;6.18;;;13.60;99.90;;;;;;5048723;28;20485;-52
2023/06/02 08:16:46;;;;;;;26.35;5.32;;;13.60;99.90;;;;;;5051415;28;20510;-51
2023/06/02 08:19:12;;;;;;;29.20;5.70;;;13.70;99.90;;;;;;5048890;28;20893;-50
2023/06/02 08:21:39;;;;;;;39.42;6.35;;;13.70;99.90;;;;;;5050225;28;20044;-52
2023/06/02 08:24:05;;;;;;;25.75;5.57;;;13.70;99.90;;;;;;5049932;28;20075;-53
2023/06/02 08:26:32;;;;;;;25.17;5.07;;;13.70;99.90;;;;;;5049761;28;20423;-50
2023/06/02 08:28:58;;;;;;;18.73;4.50;;;13.80;99.90;;;;;;5048944;28;20048;-49
2023/06/02 08:31:23;;;;;;;23.98;6.05;;;13.90;99.90;;;;;;5049777;28;20045;-49
2023/06/02 08:33:52;;;;;;;19.77;5.20;;;13.90;99.90;;;;;;5047646;28;20033;-49
2023/06/02 08:36:19;;;;;;;38.72;6.10;;;13.90;99.90;;;;;;5045584;28;20041;-50
2023/06/02 08:38:47;;;;;;;35.50;6.57;;;14.00;99.90;;;;;;5049357;28;20094;-49
2023/06/02 08:41:14;;;;;;;19.33;5.32;;;14.00;99.90;;;;;;5041849;28;20674;-49
2023/06/02 08:43:41;;;;;;;31.98;5.90;;;14.00;99.90;;;;;;5043397;28;20080;-50
2023/06/02 08:46:11;;;;;;;30.35;4.68;;;14.10;99.90;;;;;;5049057;28;20510;-52
2023/06/02 08:48:39;;;;;;;26.70;4.60;;;14.20;99.90;;;;;;5047476;28;20029;-51
2023/06/02 08:51:09;;;;;;;24.95;5.70;;;14.30;99.90;;;;;;5048927;28;20033;-49
2023/06/02 08:53:36;;;;;;;31.00;5.68;;;14.40;99.90;;;;;;5046887;28;20054;-50
2023/06/02 08:56:04;;;;;;;18.48;5.35;;;14.60;99.90;;;;;;5048156;28;20761;-50
2023/06/02 08:58:30;;;;;;;30.33;6.47;;;14.80;99.90;;;;;;5047971;28;20043;-50
2023/06/02 09:00:56;;;;;;;20.52;5.90;;;15.00;99.90;;;;;;5047469;28;20079;-50
2023/06/02 09:03:22;;;;;;;18.05;5.28;;;15.20;99.90;;;;;;5051599;28;20041;-49
2023/06/02 09:05:47;;;;;;;24.25;6.05;;;15.40;99.90;;;;;;5049368;28;20501;-49
2023/06/02 09:08:14;;;;;;;24.70;5.30;;;15.60;99.90;;;;;;5048241;28;20164;-50
2023/06/02 09:10:42;;;;;;;28.33;5.93;;;15.70;99.90;;;;;;5048521;28;20087;-49
2023/06/02 09:13:31;;;;;;;22.30;5.13;;;15.70;99.90;;;;;;5048759;28;20036;-49
2023/06/02 09:16:02;;;;;;;26.58;5.20;;;15.90;99.90;;;;;;5043056;28;20402;-50
2023/06/02 09:18:28;;;;;;;17.55;4.85;;;16.00;99.90;;;;;;5046448;28;20088;-52
2023/06/02 09:20:58;;;;;;;28.73;6.57;;;16.20;99.90;;;;;;5045090;28;20041;-50
2023/06/02 09:23:39;;;;;;;20.90;5.22;;;16.30;99.90;;;;;;5047642;28;20075;-50
2023/06/02 09:26:17;;;;;;;16.02;4.43;;;16.40;99.90;;;;;;5047786;28;20052;-50
2023/06/02 09:28:43;;;;;;;21.45;5.68;;;16.50;99.90;;;;;;5048176;28;20037;-50
2023/06/02 09:31:08;;;;;;;21.45;4.55;;;16.70;99.90;;;;;;5046563;28;20482;-53
2023/06/02 09:33:35;;;;;;;21.15;4.80;;;16.80;99.90;;;;;;5046105;28;20097;-51
2023/06/02 09:36:00;;;;;;;45.50;6.30;;;17.00;99.90;;;;;;5048815;28;20047;-50
2023/06/02 09:38:26;;;;;;;24.30;5.68;;;17.10;99.90;;;;;;5048566;28;20036;-50
2023/06/02 09:40:52;;;;;;;24.52;4.78;;;17.30;99.90;;;;;;5049544;28;20045;-51
2023/06/02 09:43:28;;;;;;;14.93;4.65;;;17.40;99.90;;;;;;5047906;28;20398;-49
2023/06/02 09:46:01;;;;;;;28.88;4.43;;;17.50;99.90;;;;;;5048129;28;20371;-46
2023/06/02 09:48:27;;;;;;;20.00;5.18;;;17.60;99.90;;;;;;5045478;28;20596;-50
2023/06/02 09:50:53;;;;;;;27.27;6.43;;;17.60;99.90;;;;;;5045376;28;20033;-49
2023/06/02 09:53:22;;;;;;;16.25;3.97;;;17.60;99.90;;;;;;5047588;28;20393;-50
2023/06/02 09:55:48;;;;;;;23.00;5.22;;;17.70;99.90;;;;;;5048474;28;20086;-50
2023/06/02 09:58:14;;;;;;;24.92;6.22;;;17.80;99.90;;;;;;5048330;28;20528;-48
2023/06/02 10:00:40;;;;;;;19.02;3.97;;;17.90;99.90;;;;;;5048173;28;20092;-50
2023/06/02 10:03:06;;;;;;;15.00;3.58;;;18.10;99.90;;;;;;5048121;28;20037;-51
2023/06/02 10:05:33;;;;;;;16.50;4.40;;;18.20;99.90;;;;;;5048522;28;20768;-50
2023/06/02 10:08:14;;;;;;;20.33;4.40;;;18.30;99.90;;;;;;5047885;28;20097;-50
2023/06/02 10:11:19;;;;;;;18.08;4.47;;;18.30;99.90;;;;;;5048374;28;20065;-50
2023/06/02 10:14:10;;;;;;;19.33;4.38;;;18.50;99.90;;;;;;5047993;28;20386;-50
2023/06/02 10:16:58;;;;;;;15.20;3.95;;;18.60;99.90;;;;;;5046360;28;20048;-49
2023/06/02 10:20:07;;;;;;;12.50;3.13;;;18.60;99.50;;;;;;5047557;28;20051;-51
2023/06/02 10:22:55;;;;;;;11.48;2.35;;;18.60;99.80;;;;;;5045164;28;20076;-50
2023/06/02 10:25:37;;;;;;;29.02;4.22;;;18.80;99.40;;;;;;5047737;28;20040;-51
2023/06/02 10:28:06;;;;;;;17.20;2.92;;;18.90;99.80;;;;;;5046005;28;20406;-51
2023/06/02 10:30:33;;;;;;;17.70;3.28;;;19.10;99.30;;;;;;5047830;28;20104;-51
2023/06/02 10:32:59;;;;;;;14.93;3.13;;;19.20;99.30;;;;;;5048188;28;20029;-50
2023/06/02 10:35:54;;;;;;;13.70;2.80;;;19.30;98.60;;;;;;5048184;28;20413;-50
2023/06/02 10:38:28;;;;;;;23.20;3.30;;;19.30;97.80;;;;;;5049232;28;20425;-51
2023/06/02 10:40:54;;;;;;;17.75;2.85;;;19.20;97.90;;;;;;5048345;28;20037;-53
2023/06/02 10:43:21;;;;;;;;;;;19.20;97.80;;;;;;5050221;28;20044;-50
2023/06/02 10:45:46;;;;;;;31.08;3.03;;;19.10;97.10;;;;;;5053201;28;20436;-50
2023/06/02 10:48:40;;;;;;;11.93;2.75;;;19.10;97.80;;;;;;5047925;28;20069;-55
2023/06/02 10:51:07;;;;;;;10.00;2.63;;;19.10;97.40;;;;;;5049449;28;20048;-51
2023/06/02 10:53:33;;;;;;;14.35;2.70;;;19.10;97.50;;;;;;5047690;28;20067;-50
2023/06/02 10:56:36;;;;;;;12.50;2.42;;;19.10;97.60;;;;;;5046903;28;20060;-52
2023/06/02 10:59:05;;;;;;;10.60;2.30;;;19.20;96.80;;;;;;5048792;28;20044;-53
2023/06/02 11:01:53;;;;;;;8.52;2.17;;;19.40;97.00;;;;;;5051370;28;20119;-50
2023/06/02 11:04:31;;;;;;;9.98;1.50;;;19.40;96.20;;;;;;5051508;28;20125;-50
2023/06/02 11:07:21;;;;;;;8.05;1.70;;;19.40;96.50;;;;;;5049742;28;20087;-54
2023/06/02 11:09:49;;;;;;;9.45;1.63;;;19.40;95.90;;;;;;5050845;28;20029;-52
2023/06/02 11:12:15;;;;;;;4.75;1.00;;;19.30;96.10;;;;;;5049186;28;20075;-50
2023/06/02 11:15:00;;;;;;;10.25;2.05;;;19.30;96.30;;;;;;5051636;28;20432;-52
2023/06/02 11:17:33;;;;;;;17.00;1.92;;;19.30;96.10;;;;;;5048845;28;20490;-54
2023/06/02 11:19:58;;;;;;;8.07;1.80;;;19.30;96.10;;;;;;5047978;28;20087;-50
2023/06/02 11:22:27;;;;;;;10.48;1.73;;;19.20;96.00;;;;;;5050014;28;20032;-52
2023/06/02 11:24:54;;;;;;;8.82;1.55;;;19.20;95.90;;;;;;5047768;28;20041;-55
2023/06/02 11:27:37;;;;;;;8.82;1.88;;;19.20;95.80;;;;;;5050882;28;20045;-57
2023/06/02 11:30:05;;;;;;;11.05;2.33;;;19.20;95.70;;;;;;5047874;28;20226;-50
2023/06/02 11:32:31;;;;;;;10.93;2.10;;;19.30;96.10;;;;;;5049891;28;20045;-50
2023/06/02 11:35:05;;;;;;;7.63;1.98;;;19.30;95.80;;;;;;5050859;28;20040;-50
2023/06/02 11:37:31;;;;;;;18.60;2.35;;;19.30;96.00;;;;;;5049955;28;20422;-51
2023/06/02 11:39:57;;;;;;;12.82;2.75;;;19.30;96.20;;;;;;5050420;28;20033;-50
2023/06/02 11:42:35;;;;;;;;;;;19.40;96.20;;;;;;5050514;28;20044;-53
2023/06/02 11:45:01;;;;;;;30.55;3.00;;;19.50;95.80;;;;;;5047681;28;20414;-50
2023/06/02 11:47:27;;;;;;;9.70;1.80;;;19.50;96.10;;;;;;5049772;28;20102;-52
2023/06/02 11:49:52;;;;;;;7.55;1.42;;;19.50;95.90;;;;;;5045971;28;20108;-53
2023/06/02 11:52:18;;;;;;;6.43;1.08;;;19.50;95.70;;;;;;5052794;28;20033;-52
2023/06/02 11:54:54;;;;;;;5.25;1.08;;;19.50;95.40;;;;;;5050477;28;20110;-52
2023/06/02 11:57:32;;;;;;;5.72;1.70;;;19.60;95.50;;;;;;5045714;28;20059;-50
2023/06/02 12:00:19;;;;;;;8.70;1.30;;;19.60;95.10;;;;;;5046008;28;20041;-54
2023/06/02 12:02:51;;;;;;;6.72;1.25;;;19.60;95.40;;;;;;5042549;28;20060;-50
2023/06/02 12:05:33;;;;;;;5.07;0.82;;;19.70;95.40;;;;;;5045192;28;20563;-50
2023/06/02 12:08:14;;;;;;;6.10;0.90;;;19.80;94.50;;;;;;5042093;28;20512;-50
2023/06/02 12:10:42;;;;;;;4.95;0.80;;;19.80;94.30;;;;;;5045625;28;20060;-56
2023/06/02 12:13:08;;;;;;;7.32;0.70;;;19.80;94.40;;;;;;5045417;28;20434;-52
2023/06/02 12:15:34;;;;;;;9.18;0.88;;;19.70;94.10;;;;;;5046614;28;20040;-50
2023/06/02 12:18:03;;;;;;;;;;;19.70;94.00;;;;;;5044068;28;20132;-50
2023/06/02 12:20:37;;;;;;;2.92;0.70;;;19.70;93.90;;;;;;5044170;28;19917;-56
2023/06/02 12:23:02;;;;;;;6.25;1.13;;;19.70;94.20;;;;;;5046617;28;20056;-51
2023/06/02 12:25:29;;;;;;;5.63;0.98;;;19.70;94.50;;;;;;5049055;28;20177;-55
2023/06/02 12:28:05;;;;;;;3.97;0.90;;;19.90;94.50;;;;;;5043234;28;20516;-55
2023/06/02 12:30:31;;;;;;;4.25;0.60;;;20.00;93.80;;;;;;5042233;28;20041;-56
2023/06/02 12:33:11;;;;;;;3.60;0.55;;;20.10;93.80;;;;;;5045147;28;20675;-55
2023/06/02 12:35:37;;;;;;;5.00;1.30;;;20.10;93.30;;;;;;5043485;28;20516;-50
2023/06/02 12:38:10;;;;;;;10.65;0.73;;;20.20;93.60;;;;;;5042524;28;20834;-53
2023/06/02 12:40:38;;;;;;;5.00;0.60;;;20.10;93.50;;;;;;5042947;28;20474;-51
2023/06/02 12:43:04;;;;;;;8.35;0.65;;;20.10;93.30;;;;;;5044477;28;20032;-52
2023/06/02 12:45:30;;;;;;;9.73;0.98;;;20.10;93.10;;;;;;5045719;28;20029;-53